createdAt,value
2023-04-04T00:02:08.389Z,2.38
2023-04-04T00:04:37.829Z,2.55
2023-04-04T00:07:07.426Z,2.75
2023-04-04T00:09:38.719Z,2.95
2023-04-04T00:12:08.273Z,2.70
2023-04-04T00:14:37.736Z,2.95
2023-04-04T00:17:07.255Z,2.70
2023-04-04T00:19:36.822Z,2.78
2023-04-04T00:22:06.469Z,2.60
2023-04-04T00:24:37.566Z,3.08
2023-04-04T00:27:07.035Z,3.78
2023-04-04T00:29:37.364Z,2.38
2023-04-04T00:32:07.012Z,2.88
2023-04-04T00:34:36.996Z,2.90
2023-04-04T00:37:07.387Z,2.75
2023-04-04T00:39:38.221Z,2.65
2023-04-04T00:42:08.201Z,2.95
2023-04-04T00:44:38.178Z,2.30
2023-04-04T00:47:07.716Z,2.50
2023-04-04T00:49:37.846Z,3.78
2023-04-04T00:52:08.811Z,2.47
2023-04-04T00:54:39.667Z,3.33
2023-04-04T00:57:09.987Z,2.40
2023-04-04T00:59:39.737Z,2.65
2023-04-04T01:02:09.835Z,2.72
2023-04-04T01:04:39.800Z,3.10
2023-04-04T01:07:10.069Z,2.88
2023-04-04T01:09:41.166Z,3.22
2023-04-04T01:12:11.025Z,2.95
2023-04-04T01:14:40.480Z,2.72
2023-04-04T01:17:09.952Z,2.72
2023-04-04T01:19:48.951Z,2.17
2023-04-04T01:22:23.775Z,2.38
2023-04-04T01:24:57.376Z,2.15
2023-04-04T01:27:30.511Z,2.75
2023-04-04T01:30:11.146Z,2.97
2023-04-04T01:32:47.708Z,1.80
2023-04-04T01:35:28.782Z,2.75
2023-04-04T01:38:16.848Z,2.50
2023-04-04T01:40:51.236Z,2.75
2023-04-04T01:43:23.823Z,2.20
2023-04-04T01:45:54.024Z,2.55
2023-04-04T01:48:23.982Z,2.60
2023-04-04T01:50:57.089Z,2.25
2023-04-04T01:53:29.365Z,2.38
2023-04-04T01:55:58.819Z,2.70
2023-04-04T01:58:29.924Z,2.38
2023-04-04T02:00:59.515Z,2.35
2023-04-04T02:03:28.948Z,2.17
2023-04-04T02:05:58.375Z,2.30
2023-04-04T02:08:28.743Z,2.55
2023-04-04T02:11:00.236Z,2.90
2023-04-04T02:13:31.722Z,2.30
2023-04-04T02:16:02.705Z,3.20
2023-04-04T02:18:32.153Z,2.35
2023-04-04T02:21:01.627Z,2.50
2023-04-04T02:23:31.729Z,2.63
2023-04-04T02:26:01.360Z,2.63
2023-04-04T02:28:32.760Z,2.67
2023-04-04T02:31:03.273Z,2.20
2023-04-04T02:33:33.081Z,2.42
2023-04-04T02:36:06.875Z,2.40
2023-04-04T02:38:36.363Z,2.97
2023-04-04T02:41:08.198Z,2.25
2023-04-04T02:43:40.099Z,2.63
2023-04-04T02:46:21.155Z,2.65
2023-04-04T02:48:53.690Z,2.92
2023-04-04T02:51:23.927Z,2.03
2023-04-04T02:53:53.639Z,2.30
2023-04-04T02:56:28.077Z,2.50
2023-04-04T02:58:59.392Z,2.63
2023-04-04T03:01:28.950Z,2.15
2023-04-04T03:04:04.372Z,2.63
2023-04-04T03:06:35.426Z,2.30
2023-04-04T03:09:05.489Z,2.22
2023-04-04T03:11:34.875Z,2.90
2023-04-04T03:14:07.500Z,2.13
2023-04-04T03:16:40.595Z,2.75
2023-04-04T03:19:10.319Z,1.98
2023-04-04T03:21:39.708Z,2.28
2023-04-04T03:24:09.420Z,2.03
2023-04-04T03:26:39.094Z,2.20
2023-04-04T03:29:10.473Z,2.30
2023-04-04T03:31:41.484Z,2.05
2023-04-04T03:34:10.976Z,2.53
2023-04-04T03:36:40.385Z,2.55
2023-04-04T03:39:09.827Z,2.67
2023-04-04T03:41:39.329Z,2.55
2023-04-04T03:44:10.630Z,2.58
2023-04-04T03:46:41.941Z,3.10
2023-04-04T03:49:13.328Z,2.90
2023-04-04T03:51:42.899Z,2.95
2023-04-04T03:54:12.310Z,2.63
2023-04-04T03:56:41.926Z,2.58
2023-04-04T03:59:12.765Z,2.15
2023-04-04T04:01:42.243Z,3.05
2023-04-04T04:04:11.766Z,2.60
2023-04-04T04:06:43.881Z,2.85
2023-04-04T04:09:13.285Z,2.72
2023-04-04T04:11:42.949Z,2.78
2023-04-04T04:14:13.991Z,2.88
2023-04-04T04:16:43.729Z,2.45
2023-04-04T04:19:17.109Z,2.78
2023-04-04T04:21:46.552Z,2.80
2023-04-04T04:24:16.059Z,2.85
2023-04-04T04:26:46.206Z,2.90
2023-04-04T04:29:19.560Z,2.42
2023-04-04T04:31:49.314Z,2.53
2023-04-04T04:34:18.796Z,2.80
2023-04-04T04:36:50.214Z,2.53
2023-04-04T04:39:24.878Z,3.03
2023-04-04T04:42:06.892Z,2.38
2023-04-04T04:44:40.320Z,3.13
2023-04-04T04:47:09.970Z,4.20
2023-04-04T04:49:39.440Z,3.28
2023-04-04T04:52:11.842Z,2.35
2023-04-04T04:57:14.363Z,2.72
2023-04-04T04:59:47.992Z,2.50
2023-04-04T05:02:17.884Z,2.42
2023-04-04T05:04:49.377Z,3.10
2023-04-04T05:07:19.845Z,2.90
2023-04-04T05:09:51.637Z,2.78
2023-04-04T05:12:24.387Z,3.30
2023-04-04T05:14:57.172Z,3.90
2023-04-04T05:17:27.005Z,3.85
2023-04-04T05:20:01.071Z,3.63
2023-04-04T05:22:31.139Z,3.67
2023-04-04T05:25:00.741Z,3.50
2023-04-04T05:27:30.570Z,3.38
2023-04-04T05:30:04.752Z,2.97
2023-04-04T05:32:46.804Z,2.70
2023-04-04T05:35:25.217Z,3.33
2023-04-04T05:37:57.122Z,3.13
2023-04-04T05:40:26.658Z,2.38
2023-04-04T05:43:07.331Z,2.75
2023-04-04T05:45:47.317Z,3.30
2023-04-04T05:48:16.805Z,3.30
2023-04-04T05:50:52.511Z,2.83
2023-04-04T05:53:29.298Z,2.83
2023-04-04T05:55:59.308Z,3.53
2023-04-04T05:58:32.850Z,3.05
2023-04-04T06:01:08.840Z,3.22
2023-04-04T06:03:38.934Z,3.20
2023-04-04T06:06:13.648Z,6.55
2023-04-04T06:08:52.843Z,6.30
2023-04-04T06:11:23.558Z,5.28
2023-04-04T06:13:55.107Z,5.15
2023-04-04T06:16:26.560Z,3.90
2023-04-04T06:18:56.211Z,3.40
2023-04-04T06:21:26.540Z,3.70
2023-04-04T06:23:55.958Z,3.50
2023-04-04T06:26:27.013Z,4.28
2023-04-04T06:28:56.562Z,3.40
2023-04-04T06:31:32.034Z,2.97
2023-04-04T06:34:07.896Z,4.32
2023-04-04T06:36:50.771Z,3.45
2023-04-04T06:39:20.928Z,3.33
2023-04-04T06:41:51.970Z,3.72
2023-04-04T06:44:27.321Z,4.00
2023-04-04T06:46:58.192Z,3.53
2023-04-04T06:49:27.699Z,3.28
2023-04-04T06:51:57.852Z,3.35
2023-04-04T06:54:27.483Z,3.50
2023-04-04T06:56:57.195Z,3.15
2023-04-04T06:59:26.693Z,3.28
2023-04-04T07:01:59.071Z,3.92
2023-04-04T07:04:30.097Z,3.63
2023-04-04T07:06:59.521Z,4.00
2023-04-04T07:09:29.877Z,3.83
2023-04-04T07:11:59.388Z,3.80
2023-04-04T07:14:28.996Z,3.75
2023-04-04T07:16:59.905Z,3.25
2023-04-04T07:19:30.313Z,4.28
2023-04-04T07:21:59.688Z,4.70
2023-04-04T07:24:29.395Z,3.60
2023-04-04T07:26:58.850Z,4.18
2023-04-04T07:29:28.260Z,4.30
2023-04-04T07:31:59.224Z,3.45
2023-04-04T07:34:29.472Z,4.10
2023-04-04T07:36:59.192Z,3.45
2023-04-04T07:39:28.555Z,3.50
2023-04-04T07:41:58.227Z,3.67
2023-04-04T07:44:27.621Z,3.83
2023-04-04T07:47:08.545Z,3.70
2023-04-04T07:49:40.752Z,3.90
2023-04-04T07:52:10.179Z,4.88
2023-04-04T07:54:40.170Z,3.70
2023-04-04T07:57:10.087Z,4.43
2023-04-04T07:59:39.544Z,4.38
2023-04-04T08:02:08.908Z,3.50
2023-04-04T08:04:39.769Z,4.15
2023-04-04T08:07:09.223Z,3.78
2023-04-04T08:09:38.664Z,3.38
2023-04-04T08:12:08.590Z,3.95
2023-04-04T08:14:38.161Z,3.63
2023-04-04T08:17:08.197Z,4.20
2023-04-04T08:19:38.965Z,3.40
2023-04-04T08:22:09.643Z,3.72
2023-04-04T08:24:39.113Z,3.45
2023-04-04T08:27:08.519Z,3.42
2023-04-04T08:29:38.002Z,3.58
2023-04-04T08:32:07.721Z,4.05
2023-04-04T08:34:37.415Z,3.75
2023-04-04T08:37:09.057Z,3.50
2023-04-04T08:39:38.717Z,3.40
2023-04-04T08:42:09.396Z,3.55
2023-04-04T08:44:40.634Z,4.15
2023-04-04T08:47:11.691Z,3.92
2023-04-04T08:49:46.202Z,3.58
2023-04-04T08:52:20.184Z,4.25
2023-04-04T08:54:51.926Z,3.95
2023-04-04T08:57:21.706Z,3.72
2023-04-04T08:59:51.338Z,4.05
2023-04-04T09:02:29.251Z,3.53
2023-04-04T09:05:06.416Z,4.03
2023-04-04T09:07:39.594Z,3.55
2023-04-04T09:10:12.652Z,4.53
2023-04-04T09:12:47.484Z,5.38
2023-04-04T09:15:17.368Z,3.00
2023-04-04T09:17:46.779Z,4.00
2023-04-04T09:20:37.537Z,4.18
2023-04-04T09:23:11.996Z,4.72
2023-04-04T09:26:02.550Z,3.20
2023-04-04T09:28:34.402Z,3.25
2023-04-04T09:31:10.102Z,3.80
2023-04-04T09:33:40.442Z,3.10
2023-04-04T09:36:13.016Z,3.78
2023-04-04T09:38:45.294Z,3.55
2023-04-04T09:41:17.165Z,3.63
2023-04-04T09:43:46.973Z,3.22
2023-04-04T09:46:20.431Z,3.42
2023-04-04T09:48:51.772Z,4.43
2023-04-04T09:51:21.331Z,4.20
2023-04-04T09:53:52.952Z,4.00
2023-04-04T09:56:23.459Z,3.20
2023-04-04T09:59:03.441Z,3.83
2023-04-04T10:01:35.080Z,3.63
2023-04-04T10:04:06.339Z,3.45
2023-04-04T10:06:38.701Z,3.75
2023-04-04T10:09:10.972Z,3.70
2023-04-04T10:11:40.616Z,3.40
2023-04-04T10:14:11.595Z,5.38
2023-04-04T10:16:47.029Z,3.63
2023-04-04T10:19:19.047Z,3.90
2023-04-04T10:21:48.972Z,4.43
2023-04-04T10:24:20.047Z,4.07
2023-04-04T10:26:49.554Z,3.25
2023-04-04T10:29:19.285Z,3.42
2023-04-04T10:31:58.266Z,3.72
2023-04-04T10:34:39.229Z,4.35
2023-04-04T10:37:14.852Z,3.05
2023-04-04T10:39:53.326Z,4.05
2023-04-04T10:42:23.814Z,3.88
2023-04-04T10:44:54.022Z,4.07
2023-04-04T10:47:26.343Z,4.00
2023-04-04T10:49:57.192Z,3.88
2023-04-04T10:52:30.047Z,3.50
2023-04-04T10:55:06.276Z,3.53
2023-04-04T10:57:41.686Z,3.60
2023-04-04T11:00:17.842Z,3.65
2023-04-04T11:02:51.870Z,3.95
2023-04-04T11:05:25.299Z,3.72
2023-04-04T11:08:08.324Z,3.55
2023-04-04T11:10:43.235Z,3.55
2023-04-04T11:13:17.178Z,3.70
2023-04-04T11:15:54.170Z,4.03
2023-04-04T11:18:33.187Z,3.47
2023-04-04T11:21:05.495Z,3.50
2023-04-04T11:24:18.888Z,3.90
2023-04-04T11:26:49.767Z,3.45
2023-04-04T11:29:53.859Z,3.70
2023-04-04T11:35:07.728Z,3.55
2023-04-04T11:37:45.530Z,4.05
2023-04-04T11:40:17.387Z,3.53
2023-04-04T11:42:56.064Z,3.83
2023-04-04T11:45:27.936Z,3.58
2023-04-04T11:47:59.502Z,3.45
2023-04-04T11:50:37.232Z,3.40
2023-04-04T11:53:09.583Z,3.63
2023-04-04T11:55:47.381Z,3.50
2023-04-04T11:58:20.396Z,4.47
2023-04-04T12:00:50.634Z,4.32
2023-04-04T12:03:20.158Z,3.47
2023-04-04T12:05:50.922Z,4.05
2023-04-04T12:08:21.028Z,4.00
2023-04-04T12:10:51.165Z,3.80
2023-04-04T12:13:21.952Z,3.45
2023-04-04T12:15:51.524Z,3.95
2023-04-04T12:18:24.551Z,3.63
2023-04-04T12:20:54.391Z,4.15
2023-04-04T12:23:24.297Z,3.85
2023-04-04T12:25:55.787Z,3.38
2023-04-04T12:28:28.394Z,3.83
2023-04-04T12:30:58.185Z,4.65
2023-04-04T12:33:27.994Z,3.40
2023-04-04T12:35:57.533Z,3.42
2023-04-04T12:38:28.077Z,3.20
2023-04-04T12:40:58.086Z,3.30
2023-04-04T12:43:30.834Z,3.35
2023-04-04T12:46:00.389Z,3.88
2023-04-04T12:48:31.658Z,3.53
2023-04-04T12:51:02.464Z,3.10
2023-04-04T12:53:33.013Z,3.60
2023-04-04T12:56:06.516Z,3.45
2023-04-04T12:58:37.861Z,3.10
2023-04-04T13:01:08.304Z,3.97
2023-04-04T13:03:38.266Z,3.47
2023-04-04T13:06:14.230Z,2.97
2023-04-04T13:08:54.839Z,3.63
2023-04-04T13:11:25.518Z,3.50
2023-04-04T13:14:05.899Z,4.05
2023-04-04T13:16:37.585Z,3.80
2023-04-04T13:19:07.253Z,4.20
2023-04-04T13:21:36.699Z,4.43
2023-04-04T13:24:06.849Z,3.63
2023-04-04T13:26:36.268Z,4.43
2023-04-04T13:29:07.043Z,3.88
2023-04-04T13:31:36.473Z,3.55
2023-04-04T13:34:05.993Z,5.63
2023-04-04T13:36:35.723Z,5.03
2023-04-04T13:39:05.382Z,3.55
2023-04-04T13:41:34.909Z,3.65
2023-04-04T13:44:05.752Z,2.97
2023-04-04T13:46:35.245Z,3.35
2023-04-04T13:49:04.800Z,4.30
2023-04-04T13:51:34.193Z,3.85
2023-04-04T13:54:03.671Z,3.58
2023-04-04T13:56:33.051Z,3.78
2023-04-04T13:59:03.066Z,3.92
2023-04-04T14:01:34.071Z,4.47
2023-04-04T14:04:10.175Z,3.92
2023-04-04T14:06:47.185Z,3.08
2023-04-04T14:09:16.589Z,3.60
2023-04-04T14:11:46.708Z,3.40
2023-04-04T14:14:16.102Z,4.00
2023-04-04T14:16:47.178Z,3.22
2023-04-04T14:19:17.126Z,3.50
2023-04-04T14:21:46.562Z,3.72
2023-04-04T14:24:16.084Z,4.13
2023-04-04T14:26:45.515Z,3.17
2023-04-04T14:29:14.945Z,4.30
2023-04-04T14:31:45.752Z,4.82
2023-04-04T14:34:15.472Z,4.10
2023-04-04T14:36:45.010Z,3.92
2023-04-04T14:39:14.677Z,3.70
2023-04-04T14:41:44.163Z,3.70
2023-04-04T14:44:14.151Z,3.60
2023-04-04T14:46:44.708Z,3.55
2023-04-04T14:49:15.604Z,4.07
2023-04-04T14:51:45.350Z,3.80
2023-04-04T14:54:14.741Z,4.05
2023-04-04T14:56:45.524Z,3.88
2023-04-04T14:59:14.976Z,4.00
2023-04-04T15:01:44.839Z,3.90
2023-04-04T15:04:15.661Z,3.47
2023-04-04T15:06:45.531Z,4.90
2023-04-04T15:09:14.932Z,4.57
2023-04-04T15:11:44.406Z,3.45
2023-04-04T15:14:14.290Z,3.88
2023-04-04T15:16:43.761Z,4.35
2023-04-04T15:19:13.792Z,3.75
2023-04-04T15:21:44.567Z,3.60
2023-04-04T15:24:14.047Z,3.60
2023-04-04T15:26:43.964Z,3.55
2023-04-04T15:29:14.628Z,3.53
2023-04-04T15:31:44.085Z,3.85
2023-04-04T15:34:13.504Z,3.60
2023-04-04T15:36:44.361Z,3.33
2023-04-04T15:39:14.029Z,3.72
2023-04-04T15:41:43.437Z,3.63
2023-04-04T15:44:12.886Z,3.63
2023-04-04T15:46:42.288Z,3.55
2023-04-04T15:49:11.700Z,3.95
2023-04-04T15:51:44.760Z,4.07
2023-04-04T15:54:15.499Z,3.67
2023-04-04T15:56:44.929Z,3.05
2023-04-04T15:59:14.362Z,3.47
2023-04-04T16:01:43.911Z,3.90
2023-04-04T16:04:13.416Z,3.65
2023-04-04T16:06:42.863Z,3.80
2023-04-04T16:09:12.411Z,4.35
2023-04-04T16:11:43.202Z,3.22
2023-04-04T16:14:13.627Z,3.35
2023-04-04T16:16:43.113Z,3.67
2023-04-04T16:19:14.196Z,3.30
2023-04-04T16:21:43.935Z,3.20
2023-04-04T16:24:14.180Z,3.67
2023-04-04T16:26:47.460Z,3.78
2023-04-04T16:29:20.364Z,3.60
2023-04-04T16:31:50.057Z,4.13
2023-04-04T16:34:19.468Z,3.78
2023-04-04T16:36:48.958Z,3.70
2023-04-04T16:39:18.946Z,3.95
2023-04-04T16:41:49.737Z,3.75
2023-04-04T16:44:19.169Z,3.90
2023-04-04T16:46:48.662Z,4.22
2023-04-04T16:49:18.106Z,3.83
2023-04-04T16:51:47.622Z,3.80
2023-04-04T16:54:17.041Z,3.90
2023-04-04T16:56:46.810Z,3.85
2023-04-04T16:59:17.759Z,3.83
2023-04-04T17:01:49.022Z,4.07
2023-04-04T17:04:18.531Z,3.90
2023-04-04T17:06:48.580Z,4.32
2023-04-04T17:09:17.984Z,4.60
2023-04-04T17:11:47.343Z,4.40
2023-04-04T17:14:18.273Z,4.78
2023-04-04T17:16:48.037Z,4.70
2023-04-04T17:19:17.512Z,4.38
2023-04-04T17:21:47.071Z,5.10
2023-04-04T17:24:16.811Z,5.00
2023-04-04T17:26:48.121Z,5.63
2023-04-04T17:29:20.662Z,5.95
2023-04-04T17:31:50.139Z,4.90
2023-04-04T17:34:20.022Z,4.43
2023-04-04T17:36:49.777Z,4.80
2023-04-04T17:39:19.884Z,5.18
2023-04-04T17:41:49.798Z,4.05
2023-04-04T17:44:22.191Z,5.05
2023-04-04T17:46:51.654Z,4.50
2023-04-04T17:49:21.019Z,4.38
2023-04-04T17:51:51.634Z,4.68
2023-04-04T17:54:21.572Z,5.05
2023-04-04T17:56:51.063Z,6.60
2023-04-04T17:59:21.927Z,6.03
2023-04-04T18:01:51.988Z,7.32
2023-04-04T18:04:22.190Z,6.43
2023-04-04T18:06:52.087Z,6.13
2023-04-04T18:09:21.635Z,5.35
2023-04-04T18:11:52.023Z,4.43
2023-04-04T18:14:22.888Z,5.03
2023-04-04T18:16:52.427Z,5.78
2023-04-04T18:19:21.846Z,7.40
2023-04-04T18:21:52.902Z,8.25
2023-04-04T18:24:25.900Z,7.82
2023-04-04T18:26:55.276Z,7.40
2023-04-04T18:29:26.854Z,6.03
2023-04-04T18:31:56.349Z,7.15
2023-04-04T18:34:26.005Z,5.82
2023-04-04T18:36:55.873Z,6.68
2023-04-04T18:39:25.798Z,6.95
2023-04-04T18:41:55.256Z,7.68
2023-04-04T18:44:27.039Z,7.95
2023-04-04T18:46:58.612Z,5.85
2023-04-04T18:49:28.111Z,5.88
2023-04-04T18:51:58.186Z,4.97
2023-04-04T18:54:27.971Z,4.72
2023-04-04T18:56:57.868Z,4.85
2023-04-04T18:59:29.412Z,4.65
2023-04-04T19:02:00.766Z,4.85
2023-04-04T19:04:33.464Z,4.45
2023-04-04T19:07:07.733Z,4.93
2023-04-04T19:09:38.961Z,5.10
2023-04-04T19:12:08.525Z,5.05
2023-04-04T19:14:39.296Z,4.95
2023-04-04T19:17:09.839Z,5.80
2023-04-04T19:19:39.208Z,7.43
2023-04-04T19:22:08.998Z,5.70
2023-04-04T19:24:40.203Z,6.30
2023-04-04T19:27:09.648Z,5.80
2023-04-04T19:29:40.482Z,5.80
2023-04-04T19:32:14.239Z,7.55
2023-04-04T19:34:44.646Z,7.07
2023-04-04T19:37:17.566Z,5.75
2023-04-04T19:39:47.980Z,6.97
2023-04-04T19:42:27.718Z,8.40
2023-04-04T19:44:58.461Z,7.65
2023-04-04T19:47:27.874Z,7.63
2023-04-04T19:49:58.349Z,7.20
2023-04-04T19:52:27.769Z,8.85
2023-04-04T19:54:57.200Z,8.43
2023-04-04T19:57:27.352Z,9.18
2023-04-04T20:00:03.119Z,9.73
2023-04-04T20:02:57.681Z,8.75
2023-04-04T20:06:08.656Z,9.00
2023-04-04T20:08:49.107Z,10.65
2023-04-04T20:11:23.509Z,9.77
2023-04-04T20:13:53.038Z,8.93
2023-04-04T20:16:25.333Z,9.60
2023-04-04T20:18:55.259Z,8.80
2023-04-04T20:21:27.225Z,11.93
2023-04-04T20:24:00.184Z,10.38
2023-04-04T20:26:54.812Z,11.05
2023-04-04T20:29:28.946Z,11.80
2023-04-04T20:32:03.419Z,11.85
2023-04-04T20:34:42.407Z,12.75
2023-04-04T20:37:19.810Z,12.90
2023-04-04T20:39:54.066Z,13.05
2023-04-04T20:42:47.817Z,14.52
2023-04-04T20:45:46.675Z,14.10
2023-04-04T20:48:40.902Z,14.15
2023-04-04T20:51:30.833Z,14.60
2023-04-04T20:54:03.749Z,14.38
2023-04-04T20:56:56.404Z,12.93
2023-04-04T20:59:36.762Z,12.15
2023-04-04T21:02:19.670Z,10.73
2023-04-04T21:04:52.118Z,10.15
2023-04-04T21:07:42.395Z,12.50
2023-04-04T21:10:47.114Z,10.85
2023-04-04T21:13:16.962Z,9.48
2023-04-04T21:15:46.378Z,9.50
2023-04-04T21:18:22.778Z,10.35
2023-04-04T21:21:19.614Z,9.43
2023-04-04T21:23:52.564Z,8.30
2023-04-04T21:26:34.873Z,10.23
2023-04-04T21:29:07.346Z,9.23
2023-04-04T21:31:39.886Z,7.27
2023-04-04T21:34:14.659Z,10.52
2023-04-04T21:36:47.215Z,11.07
2023-04-04T21:39:23.591Z,10.27
2023-04-04T21:41:58.989Z,11.18
2023-04-04T21:44:28.666Z,10.68
2023-04-04T21:46:58.440Z,10.30
2023-04-04T21:49:27.975Z,10.88
2023-04-04T21:51:58.725Z,11.65
2023-04-04T21:54:28.226Z,13.02
2023-04-04T21:56:57.660Z,12.60
2023-04-04T21:59:27.149Z,12.75
2023-04-04T22:01:56.618Z,16.48
2023-04-04T22:04:26.230Z,15.55
2023-04-04T22:06:55.670Z,17.52
2023-04-04T22:09:29.509Z,18.55
2023-04-04T22:11:58.994Z,18.95
2023-04-04T22:14:29.982Z,20.52
2023-04-04T22:16:59.375Z,21.92
2023-04-04T22:19:34.677Z,19.05
2023-04-04T22:22:05.427Z,18.02
2023-04-04T22:24:36.213Z,17.98
2023-04-04T22:27:05.704Z,14.85
2023-04-04T22:29:35.071Z,14.02
2023-04-04T22:32:04.580Z,15.88
2023-04-04T22:34:34.154Z,14.02
2023-04-04T22:37:04.538Z,14.85
2023-04-04T22:39:35.383Z,14.02
2023-04-04T22:42:05.416Z,16.48
2023-04-04T22:44:34.939Z,14.95
2023-04-04T22:47:06.128Z,13.75
2023-04-04T22:49:37.824Z,14.63
2023-04-04T22:52:07.793Z,14.98
2023-04-04T22:54:38.609Z,13.73
2023-04-04T22:57:08.066Z,14.52
2023-04-04T22:59:37.561Z,12.93
2023-04-04T23:02:07.202Z,14.23
2023-04-04T23:04:37.401Z,12.52
2023-04-04T23:07:06.882Z,11.73
2023-04-04T23:09:36.358Z,11.70
2023-04-04T23:12:08.138Z,11.50
2023-04-04T23:14:38.672Z,11.10
2023-04-04T23:17:08.162Z,10.95
2023-04-04T23:19:37.582Z,11.70
2023-04-04T23:22:07.440Z,11.77
2023-04-04T23:24:37.676Z,11.90
2023-04-04T23:27:08.704Z,11.95
2023-04-04T23:29:38.284Z,10.52
2023-04-04T23:32:07.750Z,10.60
2023-04-04T23:34:37.334Z,12.25
2023-04-04T23:37:07.432Z,11.82
2023-04-04T23:39:37.114Z,10.60
2023-04-04T23:42:07.978Z,10.40
2023-04-04T23:44:37.488Z,9.55
2023-04-04T23:47:07.042Z,12.07
2023-04-04T23:49:36.565Z,9.82
2023-04-04T23:52:07.715Z,10.02
2023-04-04T23:54:37.210Z,9.25
2023-04-04T23:57:07.946Z,9.50
2023-04-04T23:59:37.368Z,9.65
